Time;durP1;ratioP1;P1;durP2;ratioP2;P2;SDS_P1;SDS_P2;PMS_P1;PMS_P2;Temp;Humidity;BMP_temperature;BMP_pressure;BME280_temperature;BME280_humidity;BME280_pressure;Samples;Min_cycle;Max_cycle;Signal;HPM_P1;HPM_P2
2021/08/07 00:04:10;;;;;;;3.80;1.92;;;;;;;;;;10333567;28;20026;-82
2021/08/07 00:09:10;;;;;;;2.88;2.10;;;;;;;;;;10331426;28;20053;-82
2021/08/07 00:14:11;;;;;;;1.70;1.60;;;;;;;;;;10333476;28;20045;-82
2021/08/07 00:19:11;;;;;;;4.50;2.15;;;;;;;;;;10332906;28;20058;-82
2021/08/07 00:24:11;;;;;;;4.67;2.00;;;;;;;;;;10333225;28;20026;-82
2021/08/07 00:29:12;;;;;;;2.57;1.83;;;;;;;;;;10333088;28;20049;-82
2021/08/07 00:34:12;;;;;;;3.08;1.83;;;;;;;;;;10333810;28;20027;-82
2021/08/07 00:39:13;;;;;;;2.47;1.70;;;;;;;;;;10340533;28;20030;-82
2021/08/07 00:44:13;;;;;;;2.57;1.97;;;;;;;;;;10340415;28;20464;-82
2021/08/07 00:49:13;;;;;;;3.80;1.97;;;;;;;;;;10340095;28;20042;-82
2021/08/07 00:54:14;;;;;;;2.92;1.90;;;;;;;;;;10340098;28;20034;-82
2021/08/07 00:59:14;;;;;;;3.00;2.03;;;;;;;;;;10339609;28;20026;-82
2021/08/07 01:04:23;;;;;;;2.58;1.90;;;;;;;;;;10339706;28;20156;-82
2021/08/07 01:09:34;;;;;;;4.20;1.90;;;;;;;;;;10339073;28;20125;-82
2021/08/07 01:14:37;;;;;;;3.47;1.98;;;;;;;;;;10339227;28;20034;-81
2021/08/07 01:19:51;;;;;;;5.65;2.03;;;;;;;;;;10337728;28;20037;-82
2021/08/07 01:24:58;;;;;;;2.78;1.95;;;;;;;;;;10339060;28;20026;-82
2021/08/07 01:29:59;;;;;;;4.65;2.42;;;;;;;;;;10338345;28;20109;-82
2021/08/07 01:35:00;;;;;;;3.45;2.10;;;;;;;;;;10338184;28;20030;-82
2021/08/07 01:40:00;;;;;;;2.35;2.10;;;;;;;;;;10338480;28;20030;-82
2021/08/07 01:45:01;;;;;;;2.05;1.63;;;;;;;;;;10337520;28;20026;-82
2021/08/07 01:50:06;;;;;;;1.83;1.70;;;;;;;;;;10337939;28;20475;-82
2021/08/07 01:55:10;;;;;;;2.13;1.80;;;;;;;;;;10336205;28;20460;-82
2021/08/07 02:00:13;;;;;;;4.07;2.17;;;;;;;;;;10337195;28;20030;-82
2021/08/07 02:05:13;;;;;;;4.03;1.90;;;;;;;;;;10337214;28;20037;-82
2021/08/07 02:10:15;;;;;;;3.78;1.80;;;;;;;;;;10335707;28;20053;-82
2021/08/07 02:15:17;;;;;;;3.40;2.45;;;;;;;;;;10334974;28;20433;-82
2021/08/07 02:20:18;;;;;;;2.88;1.98;;;;;;;;;;10335749;28;20110;-82
2021/08/07 02:25:20;;;;;;;4.28;2.10;;;;;;;;;;10335625;28;20038;-82
2021/08/07 02:30:20;;;;;;;4.70;1.98;;;;;;;;;;10336397;28;20038;-82
2021/08/07 02:35:22;;;;;;;2.40;1.67;;;;;;;;;;10334793;28;20113;-82
2021/08/07 02:40:22;;;;;;;3.03;1.73;;;;;;;;;;10334710;28;20455;-82
2021/08/07 02:45:23;;;;;;;3.45;2.30;;;;;;;;;;10336174;28;20038;-82
2021/08/07 02:50:24;;;;;;;2.80;2.10;;;;;;;;;;10334177;28;20116;-82
2021/08/07 02:55:24;;;;;;;2.72;2.13;;;;;;;;;;10334277;28;20443;-82
2021/08/07 03:00:25;;;;;;;2.15;1.67;;;;;;;;;;10334507;28;20384;-81
2021/08/07 03:05:25;;;;;;;2.20;1.80;;;;;;;;;;10334938;28;20547;-82
2021/08/07 03:10:26;;;;;;;2.53;1.97;;;;;;;;;;10335237;28;20567;-82
2021/08/07 03:15:26;;;;;;;4.85;1.80;;;;;;;;;;10334205;28;20464;-82
2021/08/07 03:20:32;;;;;;;3.78;2.05;;;;;;;;;;10333848;28;20038;-82
2021/08/07 03:25:34;;;;;;;2.97;1.90;;;;;;;;;;10333890;28;20026;-82
2021/08/07 03:30:34;;;;;;;2.15;1.80;;;;;;;;;;10333950;28;20030;-81
2021/08/07 03:35:34;;;;;;;7.68;1.67;;;;;;;;;;10333118;28;20049;-82
2021/08/07 03:40:35;;;;;;;2.53;1.88;;;;;;;;;;10333888;28;20061;-82
2021/08/07 03:45:35;;;;;;;3.40;1.67;;;;;;;;;;10332694;28;20089;-82
2021/08/07 03:50:35;;;;;;;2.28;1.80;;;;;;;;;;10333796;28;20027;-82
2021/08/07 03:55:36;;;;;;;3.17;1.60;;;;;;;;;;10333106;28;20030;-82
2021/08/07 04:00:37;;;;;;;2.20;1.93;;;;;;;;;;10333854;28;20064;-82
2021/08/07 04:05:37;;;;;;;1.70;1.60;;;;;;;;;;10333398;28;20488;-82
2021/08/07 04:10:38;;;;;;;1.70;1.40;;;;;;;;;;10378761;23;20081;-82
2021/08/07 04:15:38;;;;;;;3.72;1.77;;;;;;;;;;10381164;28;20471;-82
2021/08/07 04:20:39;;;;;;;2.33;1.60;;;;;;;;;;10382055;28;20386;-82
2021/08/07 04:25:39;;;;;;;2.67;2.00;;;;;;;;;;10381534;28;20065;-82
2021/08/07 04:30:40;;;;;;;1.83;1.60;;;;;;;;;;10381171;28;20034;-82
2021/08/07 04:35:40;;;;;;;3.55;1.95;;;;;;;;;;10380352;28;20625;-82
2021/08/07 04:40:41;;;;;;;4.65;2.08;;;;;;;;;;10380843;28;20383;-82
2021/08/07 04:45:41;;;;;;;2.63;1.80;;;;;;;;;;10380846;28;20188;-82
2021/08/07 04:50:41;;;;;;;1.83;1.48;;;;;;;;;;10380771;28;20037;-82
2021/08/07 04:55:42;;;;;;;3.15;1.80;;;;;;;;;;10380385;28;20033;-82
2021/08/07 05:00:42;;;;;;;1.92;1.65;;;;;;;;;;10378777;28;20049;-82
2021/08/07 05:05:43;;;;;;;3.13;1.75;;;;;;;;;;10380107;28;20026;-82
2021/08/07 05:10:43;;;;;;;3.10;1.98;;;;;;;;;;10379099;28;20050;-82
2021/08/07 05:15:44;;;;;;;2.03;1.60;;;;;;;;;;10379055;28;20034;-82
2021/08/07 05:20:44;;;;;;;2.33;1.90;;;;;;;;;;10379050;28;20026;-82
2021/08/07 05:25:45;;;;;;;1.97;1.63;;;;;;;;;;10379227;28;20403;-82
2021/08/07 05:30:46;;;;;;;2.42;1.65;;;;;;;;;;10378993;28;20033;-82
2021/08/07 05:35:46;;;;;;;2.37;1.70;;;;;;;;;;10378282;28;20029;-82
2021/08/07 05:40:46;;;;;;;3.13;1.70;;;;;;;;;;10378986;28;20029;-82
2021/08/07 05:45:46;;;;;;;2.92;1.88;;;;;;;;;;10377910;28;20080;-82
2021/08/07 05:50:47;;;;;;;6.90;1.70;;;;;;;;;;10378227;28;20097;-82
2021/08/07 05:55:47;;;;;;;2.63;1.60;;;;;;;;;;10377020;28;20057;-83
2021/08/07 06:00:48;;;;;;;4.67;1.93;;;;;;;;;;10377881;28;20057;-83
2021/08/07 06:05:48;;;;;;;9.98;4.10;;;;;;;;;;10376879;28;20452;-82
2021/08/07 06:10:49;;;;;;;9.23;4.33;;;;;;;;;;10376599;28;20042;-81
2021/08/07 06:15:49;;;;;;;7.63;3.67;;;;;;;;;;10376977;28;20022;-81
2021/08/07 06:20:50;;;;;;;7.80;4.63;;;;;;;;;;10377320;28;20117;-82
2021/08/07 06:25:50;;;;;;;9.90;3.90;;;;;;;;;;10376693;28;20427;-81
2021/08/07 06:30:50;;;;;;;10.30;4.70;;;;;;;;;;10376200;28;20383;-81
2021/08/07 06:35:51;;;;;;;10.33;3.60;;;;;;;;;;10390044;28;20025;-82
2021/08/07 06:40:51;;;;;;;11.97;4.20;;;;;;;;;;10363566;28;20026;-82
2021/08/07 06:45:51;;;;;;;7.13;3.90;;;;;;;;;;10374245;28;20443;-81
2021/08/07 06:50:52;;;;;;;11.00;3.40;;;;;;;;;;10375303;28;20030;-80
2021/08/07 06:55:52;;;;;;;6.83;3.40;;;;;;;;;;10375251;28;20775;-82
2021/08/07 07:00:53;;;;;;;10.03;3.17;;;;;;;;;;10374847;28;20470;-82
2021/08/07 07:05:53;;;;;;;10.13;3.47;;;;;;;;;;10374112;28;20447;-81
2021/08/07 07:10:53;;;;;;;11.07;3.60;;;;;;;;;;10374909;28;20042;-81
2021/08/07 07:15:54;;;;;;;9.73;3.43;;;;;;;;;;10374395;28;20472;-81
2021/08/07 07:20:54;;;;;;;11.20;3.78;;;;;;;;;;10374636;28;20461;-81
2021/08/07 07:25:55;;;;;;;9.90;3.10;;;;;;;;;;10374838;28;20125;-82
2021/08/07 07:30:56;;;;;;;9.27;3.30;;;;;;;;;;10373812;28;20387;-82
2021/08/07 07:35:56;;;;;;;9.07;2.80;;;;;;;;;;10373374;28;20544;-82
2021/08/07 07:40:56;;;;;;;10.67;3.57;;;;;;;;;;10374821;28;20547;-82
2021/08/07 07:45:57;;;;;;;13.50;3.45;;;;;;;;;;10389260;28;20616;-81
2021/08/07 07:50:58;;;;;;;17.75;4.22;;;;;;;;;;10373385;28;20034;-83
2021/08/07 07:55:58;;;;;;;9.00;3.17;;;;;;;;;;10373485;28;20041;-82
2021/08/07 08:00:59;;;;;;;17.80;3.13;;;;;;;;;;10373891;28;20455;-82
2021/08/07 08:05:59;;;;;;;7.63;3.10;;;;;;;;;;10373402;28;20443;-83
2021/08/07 08:10:59;;;;;;;16.60;2.97;;;;;;;;;;10373429;28;20069;-79
2021/08/07 08:16:00;;;;;;;12.07;3.30;;;;;;;;;;10371946;28;20037;-81
2021/08/07 08:21:01;;;;;;;10.17;2.80;;;;;;;;;;10371677;28;20466;-81
2021/08/07 08:26:02;;;;;;;7.50;2.75;;;;;;;;;;10370044;28;20518;-81
2021/08/07 08:31:03;;;;;;;7.47;3.08;;;;;;;;;;10371792;28;20116;-81
2021/08/07 08:36:05;;;;;;;7.90;3.17;;;;;;;;;;10366056;28;20117;-82
2021/08/07 08:41:05;;;;;;;11.05;2.90;;;;;;;;;;10373407;28;20487;-81
2021/08/07 08:46:06;;;;;;;9.83;3.50;;;;;;;;;;10373315;28;20036;-82
2021/08/07 08:51:08;;;;;;;11.20;2.90;;;;;;;;;;10372262;28;21052;-81
2021/08/07 08:56:09;;;;;;;5.30;2.53;;;;;;;;;;10379350;28;20345;-82
2021/08/07 09:01:10;;;;;;;9.77;3.08;;;;;;;;;;10381617;28;21332;-83
2021/08/07 09:06:12;;;;;;;6.38;2.72;;;;;;;;;;10379457;28;20045;-81
2021/08/07 09:11:19;;;;;;;6.97;2.97;;;;;;;;;;10380119;28;20046;-81
2021/08/07 09:16:19;;;;;;;8.82;3.00;;;;;;;;;;10379250;28;20040;-83
2021/08/07 09:21:20;;;;;;;8.98;3.00;;;;;;;;;;10371351;28;20947;-82
2021/08/07 09:26:22;;;;;;;12.40;3.70;;;;;;;;;;10378670;28;20115;-82
2021/08/07 09:31:25;;;;;;;8.00;3.03;;;;;;;;;;10378443;28;20030;-82
2021/08/07 09:36:46;;;;;;;7.03;3.08;;;;;;;;;;10377209;28;20372;-82
2021/08/07 09:41:57;;;;;;;8.00;3.10;;;;;;;;;;10369176;28;20080;-82
2021/08/07 09:47:15;;;;;;;10.13;3.10;;;;;;;;;;10377051;28;20365;-82
2021/08/07 09:52:17;;;;;;;7.83;3.13;;;;;;;;;;10375747;28;20112;-83
2021/08/07 09:57:30;;;;;;;5.57;2.95;;;;;;;;;;10375611;28;20865;-84
2021/08/07 10:02:36;;;;;;;7.68;3.15;;;;;;;;;;10374379;28;20460;-82
2021/08/07 10:07:38;;;;;;;7.50;3.25;;;;;;;;;;10376929;28;20597;-82
2021/08/07 10:12:45;;;;;;;9.98;3.53;;;;;;;;;;10374920;28;20034;-81
2021/08/07 10:17:45;;;;;;;11.18;3.42;;;;;;;;;;10375616;28;20534;-81
2021/08/07 10:22:45;;;;;;;10.57;3.22;;;;;;;;;;10373773;28;20113;-81
2021/08/07 10:27:46;;;;;;;5.27;2.90;;;;;;;;;;10374325;28;20092;-82
2021/08/07 10:32:47;;;;;;;10.80;3.50;;;;;;;;;;10375463;28;20062;-82
2021/08/07 10:37:49;;;;;;;4.88;2.78;;;;;;;;;;10373917;28;20042;-82
2021/08/07 10:42:51;;;;;;;5.13;2.47;;;;;;;;;;10368173;28;20456;-81
2021/08/07 10:47:52;;;;;;;5.70;2.60;;;;;;;;;;10373577;28;20053;-82
2021/08/07 10:52:53;;;;;;;12.05;3.25;;;;;;;;;;10374845;28;20044;-82
2021/08/07 10:57:54;;;;;;;7.18;2.90;;;;;;;;;;10373984;28;20022;-83
2021/08/07 11:03:12;;;;;;;7.90;3.10;;;;;;;;;;10373064;28;20109;-83
2021/08/07 11:08:16;;;;;;;9.57;2.97;;;;;;;;;;10372417;28;20050;-83
2021/08/07 11:13:25;;;;;;;9.05;3.17;;;;;;;;;;10373828;28;20092;-82
2021/08/07 11:18:25;;;;;;;7.43;3.08;;;;;;;;;;10372257;28;20045;-82
2021/08/07 11:23:35;;;;;;;6.15;2.45;;;;;;;;;;10375883;28;20030;-82
2021/08/07 11:29:13;;;;;;;7.43;2.80;;;;;;;;;;10374068;28;20037;-82
2021/08/07 11:34:24;;;;;;;4.30;3.10;;;;;;;;;;10371952;28;20084;-82
2021/08/07 11:39:24;;;;;;;4.45;2.63;;;;;;;;;;10373015;28;20423;-82
2021/08/07 11:44:25;;;;;;;8.07;2.72;;;;;;;;;;10391769;28;20037;-81
2021/08/07 11:49:31;;;;;;;7.27;2.60;;;;;;;;;;10375294;28;20037;-81
2021/08/07 11:54:31;;;;;;;9.77;3.15;;;;;;;;;;10373994;28;20428;-81
2021/08/07 11:59:32;;;;;;;9.23;2.80;;;;;;;;;;10372236;28;20032;-82
2021/08/07 12:04:32;;;;;;;8.35;2.70;;;;;;;;;;10372067;28;20026;-82
2021/08/07 12:09:32;;;;;;;8.17;2.70;;;;;;;;;;10368256;28;20085;-82
2021/08/07 12:14:34;;;;;;;5.47;2.90;;;;;;;;;;10370481;28;20587;-82
2021/08/07 12:19:34;;;;;;;7.75;2.60;;;;;;;;;;10370044;28;20033;-82
2021/08/07 12:24:35;;;;;;;5.97;2.63;;;;;;;;;;10372939;28;20045;-81
2021/08/07 12:29:35;;;;;;;7.63;3.10;;;;;;;;;;10374414;28;20124;-82
2021/08/07 12:34:40;;;;;;;5.93;2.63;;;;;;;;;;10380908;28;20464;-82
2021/08/07 12:39:46;;;;;;;8.57;3.13;;;;;;;;;;10380599;28;20506;-82
2021/08/07 12:45:04;;;;;;;5.95;2.92;;;;;;;;;;10386639;28;20516;-82
2021/08/07 12:50:18;;;;;;;4.38;2.65;;;;;;;;;;10389660;28;20041;-82
2021/08/07 12:55:20;;;;;;;7.95;2.70;;;;;;;;;;10386001;28;20044;-82
2021/08/07 13:00:28;;;;;;;7.85;3.20;;;;;;;;;;10380504;28;20045;-82
2021/08/07 13:05:33;;;;;;;9.30;2.78;;;;;;;;;;10379915;28;20518;-82
2021/08/07 13:10:33;;;;;;;6.05;2.70;;;;;;;;;;10380226;28;20049;-82
2021/08/07 13:15:34;;;;;;;7.50;2.72;;;;;;;;;;10379647;28;20030;-82
2021/08/07 13:20:37;;;;;;;6.60;2.80;;;;;;;;;;10378596;28;20034;-81
2021/08/07 13:25:38;;;;;;;5.72;2.28;;;;;;;;;;10379103;28;20041;-82
2021/08/07 13:30:57;;;;;;;6.95;2.60;;;;;;;;;;10379106;28;20034;-81
2021/08/07 13:35:59;;;;;;;4.28;2.65;;;;;;;;;;10378226;28;20125;-82
2021/08/07 13:41:11;;;;;;;7.03;2.60;;;;;;;;;;10389028;28;20026;-81
2021/08/07 13:46:11;;;;;;;7.75;3.22;;;;;;;;;;10391067;28;20034;-82
2021/08/07 13:51:12;;;;;;;12.80;2.70;;;;;;;;;;10377540;28;20108;-81
2021/08/07 13:56:12;;;;;;;5.90;2.37;;;;;;;;;;10375979;28;20056;-81
2021/08/07 14:01:13;;;;;;;7.93;2.75;;;;;;;;;;10376908;28;20124;-81
2021/08/07 14:06:14;;;;;;;7.07;2.53;;;;;;;;;;10381307;28;20034;-82
2021/08/07 14:11:16;;;;;;;11.13;3.22;;;;;;;;;;10369420;28;20048;-82
2021/08/07 14:16:16;;;;;;;5.75;2.55;;;;;;;;;;10379248;28;20037;-81
2021/08/07 14:21:17;;;;;;;7.57;2.55;;;;;;;;;;10378473;28;20022;-81
2021/08/07 14:26:18;;;;;;;9.75;3.22;;;;;;;;;;10375967;28;20103;-81
2021/08/07 14:31:18;;;;;;;7.75;2.53;;;;;;;;;;10376632;28;20390;-81
2021/08/07 14:36:19;;;;;;;8.40;3.10;;;;;;;;;;10383837;28;20029;-82
2021/08/07 14:41:20;;;;;;;11.55;3.42;;;;;;;;;;10383323;28;20361;-82
2021/08/07 14:46:21;;;;;;;7.80;2.63;;;;;;;;;;10375683;28;20087;-82
2021/08/07 14:51:22;;;;;;;6.25;2.85;;;;;;;;;;10375417;28;20103;-80
2021/08/07 14:56:22;;;;;;;5.63;2.60;;;;;;;;;;10373783;28;20495;-80
2021/08/07 15:01:23;;;;;;;5.88;2.90;;;;;;;;;;10375097;28;20044;-80
2021/08/07 15:06:25;;;;;;;5.70;2.40;;;;;;;;;;10374979;28;20065;-80
2021/08/07 15:11:26;;;;;;;7.80;2.70;;;;;;;;;;10382915;28;20060;-80
2021/08/07 15:16:26;;;;;;;8.77;2.60;;;;;;;;;;10374658;28;20046;-80
2021/08/07 15:21:27;;;;;;;6.07;2.22;;;;;;;;;;10375683;28;20036;-81
2021/08/07 15:26:28;;;;;;;11.63;2.60;;;;;;;;;;10375042;28;20033;-80
2021/08/07 15:31:28;;;;;;;4.88;2.65;;;;;;;;;;10374835;28;20434;-82
2021/08/07 15:36:29;;;;;;;8.05;2.55;;;;;;;;;;10373991;28;20113;-81
2021/08/07 15:41:30;;;;;;;9.77;3.00;;;;;;;;;;10375320;28;20034;-81
2021/08/07 15:46:30;;;;;;;6.32;2.75;;;;;;;;;;10374471;28;20121;-80
2021/08/07 15:51:31;;;;;;;9.52;2.95;;;;;;;;;;10374284;28;20030;-80
2021/08/07 15:56:31;;;;;;;5.90;2.50;;;;;;;;;;10373872;28;20038;-80
2021/08/07 16:01:33;;;;;;;9.00;3.07;;;;;;;;;;10374430;28;20044;-81
2021/08/07 16:06:33;;;;;;;7.32;2.60;;;;;;;;;;10377954;28;20064;-80
2021/08/07 16:11:37;;;;;;;6.40;2.30;;;;;;;;;;10388825;23;20052;-81
2021/08/07 16:16:37;;;;;;;7.25;3.00;;;;;;;;;;10380467;28;20551;-82
2021/08/07 16:21:38;;;;;;;4.50;2.35;;;;;;;;;;10382619;28;20445;-81
2021/08/07 16:26:38;;;;;;;34.40;2.72;;;;;;;;;;10381338;28;20033;-81
2021/08/07 16:31:39;;;;;;;6.93;2.53;;;;;;;;;;10382283;28;20041;-80
2021/08/07 16:36:39;;;;;;;9.07;2.53;;;;;;;;;;10381893;28;20105;-82
2021/08/07 16:41:41;;;;;;;4.97;2.63;;;;;;;;;;10381057;28;20026;-82
2021/08/07 16:46:42;;;;;;;10.00;2.83;;;;;;;;;;10380921;28;20040;-82
2021/08/07 16:51:43;;;;;;;6.90;2.97;;;;;;;;;;10380330;28;20037;-82
2021/08/07 16:56:43;;;;;;;5.28;2.53;;;;;;;;;;10380180;28;20431;-82
2021/08/07 17:01:44;;;;;;;10.50;3.30;;;;;;;;;;10380370;28;20033;-82
2021/08/07 17:06:45;;;;;;;5.60;2.33;;;;;;;;;;10380015;28;20539;-82
2021/08/07 17:11:45;;;;;;;6.82;2.20;;;;;;;;;;10381177;28;20111;-82
2021/08/07 17:16:46;;;;;;;6.70;2.47;;;;;;;;;;10378385;28;20422;-82
2021/08/07 17:21:47;;;;;;;4.27;2.27;;;;;;;;;;10379112;28;20506;-82
2021/08/07 17:26:47;;;;;;;5.38;2.38;;;;;;;;;;10379926;28;20026;-82
2021/08/07 17:31:57;;;;;;;6.63;2.57;;;;;;;;;;10378919;28;20061;-82
2021/08/07 17:36:57;;;;;;;5.90;2.53;;;;;;;;;;10378147;28;20033;-82
2021/08/07 17:41:58;;;;;;;4.15;2.40;;;;;;;;;;10378097;28;20535;-82
2021/08/07 17:46:59;;;;;;;4.22;2.50;;;;;;;;;;10379123;28;20041;-82
2021/08/07 17:51:59;;;;;;;6.43;2.50;;;;;;;;;;10378290;28;20026;-82
2021/08/07 17:57:00;;;;;;;7.93;2.40;;;;;;;;;;10378317;28;20026;-82
2021/08/07 18:02:00;;;;;;;6.78;2.40;;;;;;;;;;10378371;28;21008;-82
2021/08/07 18:07:01;;;;;;;11.75;2.90;;;;;;;;;;10377805;28;20084;-82
2021/08/07 18:12:01;;;;;;;2.80;1.98;;;;;;;;;;10377459;28;20034;-82
2021/08/07 18:17:03;;;;;;;3.67;1.90;;;;;;;;;;10377016;28;20038;-82
2021/08/07 18:22:03;;;;;;;4.57;2.30;;;;;;;;;;10377419;28;20026;-82
2021/08/07 18:27:04;;;;;;;3.77;2.33;;;;;;;;;;10377199;28;20025;-83
2021/08/07 18:32:06;;;;;;;7.53;2.43;;;;;;;;;;10375923;28;20061;-83
2021/08/07 18:37:06;;;;;;;2.15;1.95;;;;;;;;;;10386347;28;20471;-83
2021/08/07 18:42:07;;;;;;;5.80;2.37;;;;;;;;;;10376319;28;20026;-83
2021/08/07 18:47:09;;;;;;;9.20;2.67;;;;;;;;;;10375559;28;20037;-83
2021/08/07 18:52:10;;;;;;;6.20;2.30;;;;;;;;;;10375497;28;20854;-83
2021/08/07 18:57:10;;;;;;;7.13;2.33;;;;;;;;;;10375465;28;20120;-83
2021/08/07 19:02:11;;;;;;;11.80;2.57;;;;;;;;;;10377519;28;20442;-81
2021/08/07 19:07:11;;;;;;;9.37;2.50;;;;;;;;;;10373638;28;20479;-81
2021/08/07 19:12:11;;;;;;;6.87;2.43;;;;;;;;;;10375508;28;20482;-81
2021/08/07 19:17:12;;;;;;;7.83;2.07;;;;;;;;;;10374215;28;20034;-81
2021/08/07 19:22:12;;;;;;;8.43;2.40;;;;;;;;;;10374153;28;20026;-81
2021/08/07 19:27:13;;;;;;;3.33;2.30;;;;;;;;;;10374665;28;20040;-81
2021/08/07 19:32:13;;;;;;;6.55;2.38;;;;;;;;;;10374675;28;20431;-81
2021/08/07 19:37:13;;;;;;;4.97;2.60;;;;;;;;;;10374471;28;20128;-81
2021/08/07 19:42:14;;;;;;;5.00;2.33;;;;;;;;;;10373686;28;20478;-81
2021/08/07 19:47:14;;;;;;;3.58;2.00;;;;;;;;;;10373366;28;20040;-81
2021/08/07 19:52:15;;;;;;;6.15;2.22;;;;;;;;;;10373979;28;20120;-81
2021/08/07 19:57:15;;;;;;;8.47;2.67;;;;;;;;;;10373422;28;20034;-81
2021/08/07 20:02:16;;;;;;;3.67;2.27;;;;;;;;;;10374226;28;20022;-81
2021/08/07 20:07:16;;;;;;;7.60;2.40;;;;;;;;;;10373996;28;20400;-81
2021/08/07 20:12:16;;;;;;;5.47;2.43;;;;;;;;;;10373588;28;20462;-81
2021/08/07 20:17:17;;;;;;;3.30;2.00;;;;;;;;;;10373049;28;20499;-82
2021/08/07 20:22:17;;;;;;;3.87;2.23;;;;;;;;;;10373465;28;20034;-81
2021/08/07 20:27:18;;;;;;;3.30;1.95;;;;;;;;;;10373146;28;20785;-81
2021/08/07 20:32:18;;;;;;;4.90;2.15;;;;;;;;;;10374478;28;20449;-81
2021/08/07 20:37:19;;;;;;;4.57;2.28;;;;;;;;;;10372594;28;20535;-81
2021/08/07 20:42:19;;;;;;;3.87;2.20;;;;;;;;;;10381898;28;20433;-80
2021/08/07 20:47:20;;;;;;;4.80;2.20;;;;;;;;;;10377312;28;20053;-80
2021/08/07 20:52:20;;;;;;;2.92;2.10;;;;;;;;;;10389521;28;20030;-81
2021/08/07 20:57:21;;;;;;;4.97;2.38;;;;;;;;;;10396475;28;20029;-80
2021/08/07 21:02:21;;;;;;;3.97;1.83;;;;;;;;;;10378759;28;20387;-81
2021/08/07 21:07:22;;;;;;;4.13;1.93;;;;;;;;;;10381430;28;20045;-81
2021/08/07 21:12:23;;;;;;;2.38;2.00;;;;;;;;;;10379926;28;20455;-81
2021/08/07 21:17:23;;;;;;;5.15;2.22;;;;;;;;;;10379605;28;20041;-80
2021/08/07 21:22:23;;;;;;;3.53;2.00;;;;;;;;;;10379150;28;20086;-81
2021/08/07 21:27:24;;;;;;;2.27;1.93;;;;;;;;;;10378811;28;20494;-81
2021/08/07 21:32:24;;;;;;;3.55;2.08;;;;;;;;;;10379878;28;20033;-80
2021/08/07 21:37:25;;;;;;;4.50;2.27;;;;;;;;;;10378233;28;20036;-81
2021/08/07 21:42:26;;;;;;;4.77;2.30;;;;;;;;;;10378549;28;20026;-81
2021/08/07 21:47:28;;;;;;;5.30;2.13;;;;;;;;;;10378750;28;20037;-81
2021/08/07 21:52:28;;;;;;;4.22;2.20;;;;;;;;;;10379383;28;20091;-81
2021/08/07 21:57:29;;;;;;;4.47;2.10;;;;;;;;;;10377658;28;20100;-80
2021/08/07 22:02:29;;;;;;;4.07;2.20;;;;;;;;;;10377826;28;20104;-80
2021/08/07 22:07:29;;;;;;;2.73;2.10;;;;;;;;;;10376981;28;20046;-81
2021/08/07 22:12:30;;;;;;;6.30;2.70;;;;;;;;;;10377568;28;20065;-84
2021/08/07 22:17:31;;;;;;;8.57;2.75;;;;;;;;;;10375330;28;21083;-82
2021/08/07 22:22:31;;;;;;;10.75;3.05;;;;;;;;;;10376936;28;20110;-82
2021/08/07 22:27:32;;;;;;;3.60;2.30;;;;;;;;;;10376342;28;20036;-82
2021/08/07 22:32:32;;;;;;;5.38;2.58;;;;;;;;;;10376093;28;20028;-81
2021/08/07 22:37:32;;;;;;;10.63;2.67;;;;;;;;;;10384828;28;20120;-84
2021/08/07 22:42:33;;;;;;;6.40;2.13;;;;;;;;;;10377858;28;20486;-82
2021/08/07 22:47:34;;;;;;;6.00;2.80;;;;;;;;;;10375084;28;20088;-82
2021/08/07 22:52:34;;;;;;;8.73;2.87;;;;;;;;;;10375960;28;20033;-84
2021/08/07 22:57:35;;;;;;;9.27;3.05;;;;;;;;;;10374768;28;20459;-84
2021/08/07 23:02:36;;;;;;;12.67;2.73;;;;;;;;;;10373620;28;20026;-84
2021/08/07 23:07:36;;;;;;;6.38;2.63;;;;;;;;;;10373528;28;20128;-84
2021/08/07 23:12:37;;;;;;;7.70;2.77;;;;;;;;;;10375369;28;20030;-84
2021/08/07 23:17:37;;;;;;;8.23;2.90;;;;;;;;;;10374522;28;20026;-84
2021/08/07 23:22:37;;;;;;;8.57;3.07;;;;;;;;;;10374809;28;20045;-84
2021/08/07 23:27:38;;;;;;;10.40;2.80;;;;;;;;;;10374856;28;20033;-85
2021/08/07 23:32:38;;;;;;;7.43;3.07;;;;;;;;;;10375049;28;20448;-84
2021/08/07 23:37:39;;;;;;;7.77;3.50;;;;;;;;;;10375106;28;20447;-85
2021/08/07 23:42:39;;;;;;;8.20;3.60;;;;;;;;;;10374890;28;20487;-84
2021/08/07 23:47:40;;;;;;;4.70;2.83;;;;;;;;;;10373810;28;20033;-84
2021/08/07 23:52:40;;;;;;;18.73;3.85;;;;;;;;;;10374667;28;20061;-85
2021/08/07 23:57:40;;;;;;;8.50;2.95;;;;;;;;;;10374389;28;20026;-84
